ACA319 CYHZ-CYYC
Flight info
| Callsign | ACA319 |
|---|---|
| Flight time | N/A |
| Altitude | 34000 |
| Route | KELNO DCT EMLOB DCT PQI DCT YUC DCT PEMLU DCT MOGAG DCT 52N090W/N0450F360 DCT DALDE DCT UDPAV BIRKO5 |
| Aircraft | A320/M-SDE3FGHIRWY/LB1 |
Departure
| Time | 2025-12-30 21:25 |
|---|---|
| Airport | Halifax / Stanfield International Airport (CYHZ) |
Arrival
| Time | N/A |
|---|---|
| Airport | Calgary International Airport (CYYC) |
| Time | Latitude | Longitude | Altitude | Speed | Heading |
|---|---|---|---|---|---|
| 2025-12-30 21:00 | 44.88614 | -63.51356 | 451 ft | 0 kts | 301° |
| 2025-12-30 21:15 | 44.88603 | -63.51329 | 453 ft | 4 kts | 302° |
| 2025-12-30 21:15 | 44.88575 | -63.51263 | 451 ft | 3 kts | 295° |
| 2025-12-30 21:16 | 44.88577 | -63.51235 | 451 ft | 2 kts | 184° |
| 2025-12-30 21:19 | 44.88591 | -63.51233 | 449 ft | 5 kts | 171° |
| 2025-12-30 21:20 | 44.88473 | -63.51206 | 452 ft | 12 kts | 171° |
| 2025-12-30 21:20 | 44.88328 | -63.51030 | 454 ft | 15 kts | 118° |
| 2025-12-30 21:21 | 44.88506 | -63.50810 | 452 ft | 24 kts | 35° |
| 2025-12-30 21:21 | 44.88790 | -63.50529 | 455 ft | 22 kts | 36° |
| 2025-12-30 21:22 | 44.88836 | -63.50484 | 452 ft | 0 kts | 212° |
| 2025-12-30 21:23 | 44.88560 | -63.50752 | 452 ft | 84 kts | 215° |
| 2025-12-30 21:24 | 44.86959 | -63.52326 | 553 ft | 179 kts | 214° |
| 2025-12-30 21:25 | 44.83918 | -63.55358 | 2141 ft | 196 kts | 219° |
| 2025-12-30 21:25 | 44.82793 | -63.56622 | 2341 ft | 216 kts | 219° |
| 2025-12-30 21:25 | 44.80224 | -63.59537 | 2899 ft | 255 kts | 227° |
| 2025-12-30 21:26 | 44.79902 | -63.66485 | 4861 ft | 265 kts | 304° |
| 2025-12-30 21:27 | 44.82040 | -63.70761 | 6241 ft | 270 kts | 304° |
| 2025-12-30 21:27 | 44.84114 | -63.74931 | 7507 ft | 275 kts | 304° |
| 2025-12-30 21:27 | 44.85213 | -63.77157 | 8160 ft | 278 kts | 304° |
| 2025-12-30 21:28 | 44.87441 | -63.81679 | 9425 ft | 283 kts | 304° |
| 2025-12-30 21:28 | 44.89335 | -63.85518 | 10244 ft | 297 kts | 304° |
| 2025-12-30 21:29 | 44.91850 | -63.90628 | 10545 ft | 336 kts | 304° |
| 2025-12-30 21:29 | 44.94562 | -63.96147 | 11574 ft | 346 kts | 304° |
| 2025-12-30 21:30 | 44.98724 | -64.04638 | 13281 ft | 355 kts | 304° |
| 2025-12-30 21:31 | 45.01523 | -64.10366 | 14331 ft | 360 kts | 304° |
| 2025-12-30 21:31 | 45.02948 | -64.13294 | 14838 ft | 363 kts | 304° |
| 2025-12-30 21:31 | 45.05834 | -64.19216 | 15835 ft | 368 kts | 304° |
| 2025-12-30 21:32 | 45.08744 | -64.25194 | 16772 ft | 374 kts | 304° |
| 2025-12-30 21:32 | 45.11725 | -64.31346 | 17709 ft | 379 kts | 304° |
| 2025-12-30 21:33 | 45.14697 | -64.37494 | 18595 ft | 384 kts | 304° |
| 2025-12-30 21:33 | 45.17731 | -64.43775 | 19460 ft | 389 kts | 304° |
| 2025-12-30 21:34 | 45.22356 | -64.53372 | 20707 ft | 397 kts | 304° |
| 2025-12-30 21:35 | 45.25478 | -64.59883 | 21514 ft | 401 kts | 304° |
| 2025-12-30 21:35 | 45.27046 | -64.63162 | 21890 ft | 403 kts | 304° |
| 2025-12-30 21:35 | 45.30218 | -64.69793 | 22613 ft | 408 kts | 304° |
| 2025-12-30 21:36 | 45.33423 | -64.76496 | 23282 ft | 412 kts | 304° |
| 2025-12-30 21:37 | 45.38279 | -64.86684 | 24214 ft | 419 kts | 303° |
| 2025-12-30 21:37 | 45.39913 | -64.90128 | 24523 ft | 420 kts | 303° |
| 2025-12-30 21:38 | 45.49820 | -65.11087 | 26175 ft | 430 kts | 303° |
| 2025-12-30 21:40 | 45.63356 | -65.39957 | 27993 ft | 444 kts | 303° |
| 2025-12-30 21:42 | 45.77131 | -65.69668 | 29546 ft | 452 kts | 303° |
| 2025-12-30 21:44 | 45.90907 | -65.99681 | 31326 ft | 448 kts | 303° |
| 2025-12-30 21:46 | 46.04249 | -66.29878 | 32388 ft | 450 kts | 295° |
| 2025-12-30 21:48 | 46.17033 | -66.60521 | 33293 ft | 446 kts | 295° |
| 2025-12-30 21:50 | 46.29816 | -66.91381 | 33276 ft | 449 kts | 295° |
| 2025-12-30 21:52 | 46.42566 | -67.22499 | 33268 ft | 451 kts | 296° |
| 2025-12-30 21:54 | 46.55294 | -67.53920 | 33269 ft | 452 kts | 296° |
| 2025-12-30 21:56 | 46.67907 | -67.85430 | 33241 ft | 451 kts | 296° |
| 2025-12-30 21:59 | 46.82170 | -68.21045 | 33205 ft | 453 kts | 298° |
| 2025-12-30 22:00 | 46.93567 | -68.48625 | 33209 ft | 453 kts | 297° |